Time;durP1;ratioP1;P1;durP2;ratioP2;P2;SDS_P1;SDS_P2;PMS_P1;PMS_P2;Temp;Humidity;BMP_temperature;BMP_pressure;BME280_temperature;BME280_humidity;BME280_pressure;Samples;Min_cycle;Max_cycle;Signal;HPM_P1;HPM_P2
2022/06/27 00:01:15;;;;;;;4.75;2.87;;;;;;;20.79;68.90;100476.80;1697302;84;20964;-77
2022/06/27 00:03:42;;;;;;;7.87;2.77;;;;;;;20.73;69.08;100474.84;1696592;83;21544;-77
2022/06/27 00:06:09;;;;;;;5.67;3.00;;;;;;;20.68;69.23;100479.95;1696688;84;21871;-78
2022/06/27 00:08:37;;;;;;;7.35;3.10;;;;;;;20.62;69.37;100480.16;1699956;84;21440;-77
2022/06/27 00:11:04;;;;;;;3.00;2.70;;;;;;;20.60;69.44;100481.37;1700594;84;21450;-77
2022/06/27 00:13:32;;;;;;;4.15;3.05;;;;;;;20.56;69.56;100485.78;1695195;84;21469;-77
2022/06/27 00:16:00;;;;;;;4.40;3.02;;;;;;;20.52;69.68;100480.44;1694030;84;21071;-77
2022/06/27 00:18:28;;;;;;;4.05;3.15;;;;;;;20.52;69.80;100482.29;1694172;83;21824;-76
2022/06/27 00:20:56;;;;;;;3.35;3.05;;;;;;;20.48;69.87;100483.17;1688948;83;21585;-76
2022/06/27 00:23:25;;;;;;;4.97;2.87;;;;;;;20.45;69.92;100484.86;1685404;84;21078;-77
2022/06/27 00:25:54;;;;;;;5.87;3.08;;;;;;;20.42;70.01;100483.03;1693443;83;21004;-77
2022/06/27 00:28:24;;;;;;;7.37;3.47;;;;;;;20.39;70.11;100488.27;1694496;83;21594;-77
2022/06/27 00:30:53;;;;;;;3.10;2.80;;;;;;;20.36;70.20;100487.27;1701847;83;22804;-77
2022/06/27 00:33:23;;;;;;;4.12;3.05;;;;;;;20.34;70.24;100484.45;1697388;83;20960;-77
2022/06/27 00:35:54;;;;;;;4.30;2.95;;;;;;;20.32;70.34;100483.30;1697886;82;21026;-77
2022/06/27 00:38:21;;;;;;;5.53;3.10;;;;;;;20.32;70.40;100485.98;1696534;84;21588;-77
2022/06/27 00:40:51;;;;;;;5.00;2.92;;;;;;;20.31;70.45;100489.68;1665619;84;21049;-77
2022/06/27 00:43:20;;;;;;;3.92;2.92;;;;;;;20.29;70.40;100489.03;1695339;84;21909;-77
2022/06/27 00:45:48;;;;;;;3.87;3.15;;;;;;;20.27;70.38;100484.36;1694341;84;21859;-78
2022/06/27 00:48:17;;;;;;;5.70;2.92;;;;;;;20.24;70.44;100488.22;1696241;83;21057;-78
2022/06/27 00:50:45;;;;;;;5.70;3.25;;;;;;;20.21;70.46;100492.62;1695027;83;20967;-76
2022/06/27 00:53:14;;;;;;;5.70;3.35;;;;;;;20.18;70.50;100494.33;1694210;83;21138;-77
2022/06/27 00:55:44;;;;;;;4.53;3.20;;;;;;;20.16;70.54;100494.16;1691552;83;22605;-77
2022/06/27 00:58:13;;;;;;;4.15;3.05;;;;;;;20.13;70.58;100494.53;1663554;84;21093;-77
2022/06/27 01:00:41;;;;;;;4.15;2.90;;;;;;;20.10;70.65;100490.38;1691398;83;20986;-77
2022/06/27 01:03:09;;;;;;;4.08;3.10;;;;;;;20.08;70.70;100494.26;1693586;83;21064;-78
2022/06/27 01:05:38;;;;;;;4.92;2.90;;;;;;;20.08;70.79;100492.92;1692450;83;21559;-78
2022/06/27 01:08:07;;;;;;;5.40;3.20;;;;;;;20.04;70.90;100496.95;1692394;83;22294;-78
2022/06/27 01:10:36;;;;;;;5.67;3.12;;;;;;;20.00;70.94;100500.01;1664991;83;21041;-77
2022/06/27 01:13:02;;;;;;;5.08;3.20;;;;;;;19.96;71.00;100494.66;1699847;83;21116;-78
2022/06/27 01:15:29;;;;;;;5.10;3.17;;;;;;;19.93;71.12;100495.03;1693604;83;21018;-76
2022/06/27 01:17:55;;;;;;;6.12;3.05;;;;;;;19.93;71.28;100496.88;1692677;83;21132;-76
2022/06/27 01:20:22;;;;;;;4.17;3.12;;;;;;;19.91;71.28;100498.41;1693131;83;22534;-76
2022/06/27 01:22:49;;;;;;;4.92;3.15;;;;;;;19.90;71.48;100500.76;1698399;83;21141;-76
2022/06/27 01:25:16;;;;;;;5.40;3.10;;;;;;;19.90;71.51;100502.10;1698131;83;21091;-76
2022/06/27 01:27:44;;;;;;;4.92;3.35;;;;;;;19.89;71.61;100500.94;1694592;83;21052;-77
2022/06/27 01:30:12;;;;;;;3.72;3.25;;;;;;;19.90;71.82;100502.61;1704551;83;21041;-76
2022/06/27 01:32:42;;;;;;;5.47;3.10;;;;;;;19.94;71.76;100501.22;1687408;83;21908;-77
2022/06/27 01:35:09;;;;;;;5.17;3.20;;;;;;;19.96;71.75;100504.05;1679186;83;21080;-75
2022/06/27 01:37:35;;;;;;;3.77;3.15;;;;;;;19.97;71.73;100499.52;1694546;83;21058;-75
2022/06/27 01:40:02;;;;;;;4.58;3.35;;;;;;;19.97;71.83;100504.37;1692072;83;21169;-75
2022/06/27 01:42:31;;;;;;;3.40;2.98;;;;;;;19.99;71.83;100504.21;1694204;83;21035;-75
2022/06/27 01:44:58;;;;;;;5.62;2.90;;;;;;;19.99;71.85;100495.66;1703307;83;21874;-78
2022/06/27 01:47:26;;;;;;;3.67;3.10;;;;;;;19.97;71.84;100503.53;1694777;83;20937;-76
2022/06/27 01:49:54;;;;;;;4.22;3.10;;;;;;;19.95;71.81;100498.36;1689598;83;20960;-76
2022/06/27 01:52:22;;;;;;;6.08;3.17;;;;;;;19.93;71.82;100503.07;1699229;82;21031;-75
2022/06/27 01:54:49;;;;;;;4.35;3.10;;;;;;;19.92;71.85;100496.55;1651527;84;21014;-75
2022/06/27 01:57:19;;;;;;;5.28;3.10;;;;;;;19.91;71.88;100502.42;1724565;83;21852;-77
2022/06/27 01:59:47;;;;;;;4.45;3.30;;;;;;;19.91;71.94;100498.41;1686465;85;21066;-76
2022/06/27 02:02:14;;;;;;;4.40;3.15;;;;;;;19.89;72.02;100497.75;1676656;83;21024;-79
2022/06/27 02:04:42;;;;;;;5.28;3.10;;;;;;;19.88;72.11;100502.79;1643084;86;21037;-79
2022/06/27 02:07:09;;;;;;;5.03;2.90;;;;;;;19.86;72.16;100506.13;1699449;84;21498;-79
2022/06/27 02:09:36;;;;;;;3.33;3.02;;;;;;;19.86;72.27;100516.85;1694898;84;21811;-79
2022/06/27 02:12:19;;;;;;;5.35;3.00;;;;;;;19.83;72.43;100511.03;1694854;84;20885;-76
2022/06/27 02:14:48;;;;;;;6.60;3.02;;;;;;;19.80;72.63;100513.56;1686840;85;20993;-76
2022/06/27 02:17:16;;;;;;;3.33;3.02;;;;;;;19.79;72.71;100515.09;1636776;86;21488;-76
2022/06/27 02:19:43;;;;;;;8.43;3.27;;;;;;;19.80;72.96;100511.39;1664710;84;20969;-76
2022/06/27 02:22:11;;;;;;;3.92;3.20;;;;;;;19.85;72.93;100509.83;1692407;83;21932;-76
2022/06/27 02:24:38;;;;;;;4.65;3.05;;;;;;;19.92;72.81;100518.00;1690687;83;21070;-76
2022/06/27 02:27:05;;;;;;;3.60;3.10;;;;;;;19.99;72.73;100510.92;1699570;83;20949;-76
2022/06/27 02:29:33;;;;;;;3.92;2.80;;;;;;;20.05;72.45;100528.12;1659263;85;21526;-76
2022/06/27 02:32:00;;;;;;;4.95;3.20;;;;;;;20.10;72.26;100520.38;1689895;83;21017;-75
2022/06/27 02:34:28;;;;;;;3.58;3.10;;;;;;;20.16;72.04;100522.32;1691454;83;22308;-77
2022/06/27 02:36:57;;;;;;;3.77;3.17;;;;;;;20.20;71.81;100520.45;1703798;83;21567;-76
2022/06/27 02:39:25;;;;;;;4.90;3.10;;;;;;;20.25;71.55;100522.58;1686945;83;20977;-76
2022/06/27 02:41:54;;;;;;;3.87;2.95;;;;;;;20.30;71.31;100518.86;1690310;83;21026;-76
2022/06/27 02:44:21;;;;;;;4.35;2.90;;;;;;;20.34;71.22;100516.64;1690658;83;20981;-76
2022/06/27 02:46:50;;;;;;;3.70;2.98;;;;;;;20.36;71.08;100519.97;1684731;83;21913;-77
2022/06/27 02:49:17;;;;;;;5.58;3.50;;;;;;;20.36;70.89;100516.77;1688307;83;21540;-76
2022/06/27 02:52:04;;;;;;;4.12;3.15;;;;;;;20.42;70.78;100520.59;1691509;83;20962;-76
2022/06/27 02:54:50;;;;;;;4.87;3.08;;;;;;;20.46;70.64;100513.39;1681423;83;21098;-76
2022/06/27 02:57:27;;;;;;;4.37;3.00;;;;;;;20.51;70.54;100513.66;1691609;83;21536;-77
2022/06/27 02:59:55;;;;;;;3.50;3.20;;;;;;;20.52;70.39;100508.61;1690278;83;21920;-76
2022/06/27 03:02:21;;;;;;;3.83;3.10;;;;;;;20.55;70.35;100508.23;1660278;85;20976;-76
2022/06/27 03:04:49;;;;;;;4.58;3.15;;;;;;;20.57;70.23;100515.62;1687491;83;21025;-76
2022/06/27 03:07:16;;;;;;;6.53;3.20;;;;;;;20.63;70.15;100514.55;1685127;83;20978;-75
2022/06/27 03:09:46;;;;;;;4.15;3.15;;;;;;;20.65;70.08;100511.99;1690727;83;20969;-75
2022/06/27 03:12:15;;;;;;;4.85;3.55;;;;;;;20.68;69.99;100515.67;1711314;83;22777;-75
2022/06/27 03:14:42;;;;;;;3.72;3.05;;;;;;;20.71;69.86;100516.64;1696425;83;21018;-75
2022/06/27 03:17:09;;;;;;;6.55;3.00;;;;;;;20.77;69.75;100514.57;1689759;83;21012;-74
2022/06/27 03:19:37;;;;;;;3.80;2.85;;;;;;;20.82;69.67;100515.34;1682291;83;21508;-74
2022/06/27 03:22:06;;;;;;;3.35;3.00;;;;;;;20.85;69.67;100510.97;1686217;83;20961;-76
2022/06/27 03:24:33;;;;;;;4.45;3.30;;;;;;;20.89;69.35;100506.05;1682451;83;22620;-76
2022/06/27 03:27:00;;;;;;;4.42;3.17;;;;;;;20.93;69.21;100504.64;1696829;83;21064;-76
2022/06/27 03:29:26;;;;;;;4.40;3.20;;;;;;;20.97;69.03;100509.98;1690459;83;21107;-75
2022/06/27 03:31:55;;;;;;;4.08;3.20;;;;;;;21.01;68.89;100500.52;1703790;82;21017;-76
2022/06/27 03:34:23;;;;;;;5.28;3.08;;;;;;;21.07;68.70;100504.65;1702143;83;21100;-74
2022/06/27 03:36:52;;;;;;;4.97;3.17;;;;;;;21.13;68.44;100501.70;1702501;83;21862;-74
2022/06/27 03:39:20;;;;;;;4.03;3.20;;;;;;;21.18;68.01;100506.02;1702083;83;21049;-74
2022/06/27 03:41:48;;;;;;;3.47;3.10;;;;;;;21.26;67.98;100509.12;1710973;83;21064;-74
2022/06/27 03:44:14;;;;;;;4.67;3.10;;;;;;;21.31;67.97;100512.92;1733251;82;20954;-74
2022/06/27 03:46:44;;;;;;;4.25;3.20;;;;;;;21.37;67.92;100512.69;1715114;83;21000;-75
2022/06/27 03:51:57;;;;;;;6.40;3.25;;;;;;;21.48;67.59;100514.88;1713043;82;21000;-74
2022/06/27 03:54:25;;;;;;;5.45;3.12;;;;;;;21.54;67.44;100522.72;1716407;82;21005;-77
2022/06/27 03:56:52;;;;;;;5.22;3.30;;;;;;;21.58;67.00;100519.45;1709166;83;20980;-77
2022/06/27 03:59:18;;;;;;;3.60;3.08;;;;;;;21.64;66.68;100516.01;1702738;83;20957;-77
2022/06/27 04:01:46;;;;;;;3.98;2.85;;;;;;;21.71;66.48;100515.58;1708178;83;22393;-77
2022/06/27 04:04:12;;;;;;;4.20;3.17;;;;;;;21.78;66.19;100512.94;1713453;82;20944;-76
2022/06/27 04:06:39;;;;;;;3.37;3.00;;;;;;;21.86;65.87;100514.67;1707926;83;21032;-76
2022/06/27 04:09:07;;;;;;;4.83;3.00;;;;;;;21.91;65.74;100510.91;1719595;82;21040;-76
2022/06/27 04:11:34;;;;;;;5.50;3.20;;;;;;;21.98;65.55;100516.64;1715289;82;20961;-76
2022/06/27 04:14:00;;;;;;;4.17;3.30;;;;;;;22.07;65.24;100520.59;1701683;83;22336;-75
2022/06/27 04:16:46;;;;;;;5.45;2.95;;;;;;;22.14;64.94;100522.31;1704371;83;21175;-79
2022/06/27 04:19:31;;;;;;;4.17;2.75;;;;;;;22.22;64.77;100524.05;1713800;83;21463;-75
2022/06/27 04:22:13;;;;;;;5.97;3.20;;;;;;;22.31;64.58;100525.58;1712486;83;21036;-74
2022/06/27 04:24:58;;;;;;;4.55;3.40;;;;;;;22.37;64.39;100523.43;1670539;83;21029;-75
2022/06/27 04:27:29;;;;;;;4.67;3.45;;;;;;;22.45;64.20;100523.80;1698203;83;22244;-74
2022/06/27 04:29:56;;;;;;;7.62;3.20;;;;;;;22.53;64.09;100525.02;1703814;83;20960;-75
2022/06/27 04:32:24;;;;;;;3.62;2.70;;;;;;;22.61;63.83;100527.56;1706490;83;21022;-76
2022/06/27 04:34:51;;;;;;;6.37;3.12;;;;;;;22.66;63.65;100527.78;1697311;83;21075;-75
2022/06/27 04:37:18;;;;;;;3.70;3.10;;;;;;;22.72;63.22;100522.97;1694607;83;20932;-75
2022/06/27 04:39:46;;;;;;;5.10;3.30;;;;;;;22.78;62.76;100529.44;1693056;83;22148;-75
2022/06/27 04:42:22;;;;;;;6.55;3.47;;;;;;;22.83;62.62;100521.59;1699774;83;21503;-76
2022/06/27 04:44:49;;;;;;;3.80;3.08;;;;;;;22.91;62.70;100521.46;1701215;82;20996;-76
2022/06/27 04:47:16;;;;;;;4.90;3.30;;;;;;;22.98;62.52;100522.86;1697720;83;21449;-76
2022/06/27 04:49:44;;;;;;;3.85;2.65;;;;;;;23.03;62.34;100522.55;1700675;83;21391;-75
2022/06/27 04:52:12;;;;;;;7.55;3.08;;;;;;;23.12;62.00;100517.84;1691074;83;21912;-75
2022/06/27 04:54:43;;;;;;;4.90;3.20;;;;;;;23.19;61.68;100521.40;1698037;83;20948;-77
2022/06/27 04:57:12;;;;;;;5.03;3.20;;;;;;;23.27;61.84;100518.53;1690319;83;21024;-76
2022/06/27 04:59:40;;;;;;;6.17;3.25;;;;;;;23.33;61.28;100511.49;1704793;83;21026;-76
2022/06/27 05:02:09;;;;;;;4.50;3.02;;;;;;;23.40;61.06;100511.01;1692046;83;21000;-76
2022/06/27 05:04:36;;;;;;;4.20;3.15;;;;;;;23.47;60.84;100515.91;1706722;83;22394;-76
2022/06/27 05:07:04;;;;;;;5.42;3.30;;;;;;;23.55;60.36;100516.25;1693400;83;20953;-77
2022/06/27 05:09:30;;;;;;;5.22;3.27;;;;;;;23.61;60.31;100513.59;1697486;83;21022;-77
2022/06/27 05:11:58;;;;;;;5.15;3.22;;;;;;;23.69;60.09;100520.66;1696585;82;21016;-77
2022/06/27 05:14:25;;;;;;;4.72;3.47;;;;;;;23.77;59.99;100516.95;1689611;83;21677;-77
2022/06/27 05:16:54;;;;;;;5.05;3.45;;;;;;;23.86;60.12;100511.16;1701716;82;21959;-77
2022/06/27 05:19:23;;;;;;;4.72;3.10;;;;;;;23.97;60.38;100523.21;1703008;83;20959;-77
2022/06/27 05:21:50;;;;;;;4.25;3.02;;;;;;;24.07;59.87;100520.11;1697741;83;20984;-76
2022/06/27 05:24:18;;;;;;;6.03;3.40;;;;;;;24.13;58.87;100516.59;1700748;83;21049;-78
2022/06/27 05:26:46;;;;;;;5.10;3.40;;;;;;;24.15;58.47;100523.95;1697870;83;20967;-78
2022/06/27 05:29:13;;;;;;;3.52;3.08;;;;;;;24.19;58.38;100521.14;1690283;83;21922;-79
2022/06/27 05:31:40;;;;;;;4.80;3.30;;;;;;;24.26;58.73;100523.33;1699096;83;21009;-78
2022/06/27 05:34:07;;;;;;;8.43;3.30;;;;;;;24.33;57.94;100520.16;1697882;82;21057;-75
2022/06/27 05:36:34;;;;;;;6.35;3.50;;;;;;;24.36;57.93;100525.13;1698291;82;21119;-76
2022/06/27 05:39:01;;;;;;;6.95;3.42;;;;;;;24.42;58.05;100520.26;1699483;82;21491;-77
2022/06/27 05:41:29;;;;;;;4.15;3.30;;;;;;;24.51;58.17;100520.36;1747165;80;21900;-77
2022/06/27 05:43:59;;;;;;;6.17;3.40;;;;;;;24.60;57.61;100522.81;1750465;80;21086;-77
2022/06/27 05:46:27;;;;;;;3.80;3.10;;;;;;;24.68;57.55;100518.02;1748610;80;21545;-77
2022/06/27 05:49:12;;;;;;;3.35;2.92;;;;;;;24.76;57.35;100516.98;1748482;80;21075;-77
2022/06/27 05:51:52;;;;;;;5.03;3.60;;;;;;;24.85;57.30;100517.06;1741944;82;20969;-76
2022/06/27 05:54:21;;;;;;;5.03;3.85;;;;;;;24.94;56.71;100513.09;1749210;81;21917;-76
2022/06/27 05:56:48;;;;;;;3.67;3.35;;;;;;;25.03;56.40;100520.48;1746948;80;21466;-76
2022/06/27 05:59:16;;;;;;;6.92;3.87;;;;;;;25.10;56.19;100518.07;1715034;81;21710;-76
2022/06/27 06:01:45;;;;;;;5.92;3.55;;;;;;;25.20;56.35;100522.20;1725121;81;20978;-77
2022/06/27 06:04:12;;;;;;;5.65;4.05;;;;;;;25.29;55.97;100514.98;1708543;80;21200;-77
2022/06/27 06:06:43;;;;;;;7.08;3.55;;;;;;;25.34;55.79;100516.50;1748001;80;21974;-76
2022/06/27 06:09:08;;;;;;;4.40;3.35;;;;;;;25.42;56.00;100519.49;1747273;80;20987;-77
2022/06/27 06:11:35;;;;;;;9.18;3.83;;;;;;;25.54;56.40;100515.05;1729202;80;21392;-76
2022/06/27 06:14:02;;;;;;;4.17;3.60;;;;;;;25.67;56.45;100519.05;1737212;80;21507;-78
2022/06/27 06:16:30;;;;;;;6.30;3.60;;;;;;;25.81;56.33;100520.34;1744067;81;21043;-77
2022/06/27 06:18:57;;;;;;;5.40;3.58;;;;;;;25.93;55.61;100518.59;1684854;83;21892;-77
2022/06/27 06:21:24;;;;;;;5.30;3.58;;;;;;;26.03;55.29;100525.70;1695992;83;21017;-77
2022/06/27 06:23:52;;;;;;;7.85;3.52;;;;;;;26.16;54.81;100532.92;1704341;82;21069;-78
2022/06/27 06:26:19;;;;;;;5.25;3.30;;;;;;;26.23;54.16;100531.79;1706888;83;21020;-76
2022/06/27 06:28:48;;;;;;;3.60;3.30;;;;;;;26.27;53.58;100530.84;1737023;80;21379;-76
2022/06/27 06:31:21;;;;;;;6.22;3.37;;;;;;;26.29;53.10;100527.39;1693773;83;21918;-79
2022/06/27 06:33:46;;;;;;;5.55;3.20;;;;;;;26.31;53.23;100532.05;1737916;80;20938;-79
2022/06/27 06:36:12;;;;;;;5.67;3.40;;;;;;;26.33;53.21;100531.30;1700911;82;21157;-81
2022/06/27 06:38:39;;;;;;;6.45;3.35;;;;;;;26.40;53.15;100532.63;1700754;82;21016;-80
2022/06/27 06:41:05;;;;;;;7.28;3.37;;;;;;;26.48;53.39;100529.13;1683957;83;21122;-77
2022/06/27 06:43:32;;;;;;;8.28;3.45;;;;;;;26.58;53.29;100531.85;1702734;82;21983;-79
2022/06/27 06:46:07;;;;;;;5.90;3.17;;;;;;;26.68;53.11;100533.00;1684530;83;21352;-76
2022/06/27 06:48:37;;;;;;;6.05;3.33;;;;;;;26.77;52.62;100538.96;1713640;82;21414;-78
2022/06/27 06:51:06;;;;;;;6.83;3.62;;;;;;;26.81;52.56;100535.56;1699118;82;21419;-78
2022/06/27 06:53:35;;;;;;;5.92;3.10;;;;;;;26.86;52.06;100535.44;1677174;83;21143;-77
2022/06/27 06:56:04;;;;;;;4.55;3.30;;;;;;;26.86;51.88;100534.91;1667217;84;21854;-79
2022/06/27 06:58:31;;;;;;;3.98;3.47;;;;;;;26.89;51.93;100541.75;1678378;83;21411;-78
2022/06/27 07:00:58;;;;;;;3.87;3.15;;;;;;;26.91;52.14;100547.77;1684024;83;21058;-80
2022/06/27 07:03:25;;;;;;;5.20;3.30;;;;;;;26.97;51.88;100542.81;1674356;83;21102;-78
2022/06/27 07:05:51;;;;;;;5.00;3.58;;;;;;;27.07;51.49;100544.50;1697015;82;21482;-78
2022/06/27 07:08:19;;;;;;;4.55;3.25;;;;;;;27.15;51.64;100542.85;1685618;83;22569;-78
2022/06/27 07:10:45;;;;;;;5.70;2.87;;;;;;;27.27;51.75;100547.81;1687404;83;20956;-76
2022/06/27 07:13:14;;;;;;;7.22;3.22;;;;;;;27.43;51.60;100550.44;1663743;83;21028;-75
2022/06/27 07:15:45;;;;;;;3.45;3.15;;;;;;;27.56;51.03;100551.61;1674875;83;21019;-76
2022/06/27 07:18:10;;;;;;;5.95;3.37;;;;;;;27.70;50.79;100546.03;1699749;82;21555;-80
2022/06/27 07:20:37;;;;;;;4.25;3.20;;;;;;;27.72;50.49;100544.77;1692761;83;21978;-80
2022/06/27 07:23:04;;;;;;;4.78;3.35;;;;;;;27.75;50.41;100548.36;1683752;83;21004;-78
2022/06/27 07:25:33;;;;;;;4.30;3.00;;;;;;;27.81;50.66;100547.98;1693446;83;21443;-76
2022/06/27 07:28:00;;;;;;;4.78;3.10;;;;;;;27.92;50.54;100545.83;1694665;83;21633;-75
2022/06/27 07:30:28;;;;;;;4.67;3.12;;;;;;;28.00;50.25;100546.03;1691717;83;21057;-75
2022/06/27 07:32:55;;;;;;;4.90;3.00;;;;;;;28.05;49.60;100548.87;1698456;83;21523;-77
2022/06/27 07:35:22;;;;;;;7.15;3.12;;;;;;;28.10;49.74;100551.73;1700885;83;20942;-79
2022/06/27 07:37:49;;;;;;;4.45;2.95;;;;;;;28.15;49.63;100549.13;1706582;82;21040;-81
2022/06/27 07:40:18;;;;;;;3.70;3.00;;;;;;;28.25;49.48;100548.02;1710739;83;20943;-84
2022/06/27 07:42:45;;;;;;;4.08;2.77;;;;;;;28.37;49.30;100541.27;1697619;83;20988;-85
2022/06/27 07:45:14;;;;;;;4.08;3.15;;;;;;;28.44;48.49;100546.89;1692468;83;21837;-79
2022/06/27 07:47:46;;;;;;;5.20;3.02;;;;;;;28.52;49.16;100553.88;1679420;83;20989;-81
2022/06/27 07:50:36;;;;;;;3.10;2.67;;;;;;;28.64;48.86;100545.19;1685134;83;21013;-75
2022/06/27 07:53:41;;;;;;;3.62;2.90;;;;;;;28.76;48.07;100552.83;1693751;83;21017;-75
2022/06/27 07:55:19;;;;;;;4.37;3.17;;;;;;;28.85;47.48;100543.75;1667784;82;21048;-75
2022/06/27 07:57:47;;;;;;;8.00;2.70;;;;;;;28.92;47.59;100546.39;1698592;82;21928;-71
2022/06/27 08:00:14;;;;;;;4.53;2.83;;;;;;;29.01;47.29;100551.76;1683112;83;21007;-78
2022/06/27 08:02:41;;;;;;;6.72;3.00;;;;;;;29.06;46.34;100551.34;1676285;84;21113;-76
2022/06/27 08:05:09;;;;;;;4.95;2.58;;;;;;;29.11;45.90;100551.16;1692883;82;21077;-90
2022/06/27 08:07:38;;;;;;;4.70;2.77;;;;;;;29.14;45.87;100546.05;1693885;83;21031;-81
2022/06/27 08:10:07;;;;;;;4.08;2.80;;;;;;;29.18;45.03;100539.08;1672040;84;21967;-81
2022/06/27 08:12:35;;;;;;;7.17;2.98;;;;;;;29.20;44.75;100540.20;1683596;84;22103;-80
2022/06/27 08:15:03;;;;;;;6.28;2.30;;;;;;;29.21;45.09;100535.87;1683621;83;21503;-80
2022/06/27 08:17:30;;;;;;;6.10;2.70;;;;;;;29.31;44.96;100540.16;1683346;84;21027;-79
2022/06/27 08:19:57;;;;;;;6.65;2.45;;;;;;;29.41;44.69;100542.25;1687694;83;21498;-79
2022/06/27 08:22:25;;;;;;;6.78;2.55;;;;;;;29.48;44.74;100542.98;1696914;84;21898;-78
2022/06/27 08:24:52;;;;;;;3.37;2.30;;;;;;;29.56;44.62;100541.77;1695692;83;21045;-75
2022/06/27 08:27:19;;;;;;;3.87;2.47;;;;;;;29.67;43.77;100544.98;1690273;82;20997;-79
2022/06/27 08:29:45;;;;;;;6.65;2.45;;;;;;;29.74;43.74;100539.39;1695038;83;21165;-78
2022/06/27 08:32:12;;;;;;;7.85;2.62;;;;;;;29.82;42.35;100546.64;1741369;82;21016;-78
2022/06/27 08:34:39;;;;;;;7.87;2.60;;;;;;;29.82;42.35;100546.64;1725711;81;21890;-77
2022/06/27 08:37:06;;;;;;;3.25;2.40;;;;;;;29.85;42.18;100546.14;1712464;82;21028;-80
2022/06/27 08:39:34;;;;;;;3.70;2.15;;;;;;;29.91;41.79;100538.87;1712037;82;21097;-80
2022/06/27 08:42:01;;;;;;;2.37;2.08;;;;;;;29.92;40.07;100540.02;1688958;82;21536;-81
2022/06/27 08:44:29;;;;;;;5.12;2.62;;;;;;;29.92;40.07;100540.02;1715776;81;21039;-78
2022/06/27 08:46:56;;;;;;;6.12;2.50;;;;;;;29.94;40.90;100539.77;1687479;83;21811;-83
2022/06/27 08:49:23;;;;;;;3.37;2.40;;;;;;;29.99;40.74;100539.84;1688585;82;21723;-79
2022/06/27 08:51:50;;;;;;;3.65;2.50;;;;;;;30.07;40.98;100544.09;1708579;82;21049;-78
2022/06/27 08:54:17;;;;;;;4.05;2.30;;;;;;;30.15;39.66;100531.43;1701415;81;21017;-78
2022/06/27 08:56:43;;;;;;;6.12;2.20;;;;;;;30.18;40.47;100532.29;1709513;82;20963;-76
2022/06/27 08:59:10;;;;;;;4.42;2.45;;;;;;;30.18;40.47;100532.29;1680673;82;21938;-78
2022/06/27 09:01:37;;;;;;;5.28;2.30;;;;;;;30.27;40.84;100524.53;1676800;82;21044;-80
2022/06/27 09:04:06;;;;;;;4.72;2.20;;;;;;;30.43;40.85;100525.89;1703376;82;21026;-76
2022/06/27 09:06:43;;;;;;;3.65;1.98;;;;;;;30.57;41.27;100526.91;1711431;82;21110;-79
2022/06/27 09:09:11;;;;;;;5.40;2.30;;;;;;;30.71;39.08;100527.70;1691893;83;21021;-78
2022/06/27 09:11:43;;;;;;;2.45;2.10;;;;;;;30.70;39.20;100532.05;1708559;83;21826;-77
2022/06/27 09:14:30;;;;;;;3.45;1.95;;;;;;;30.68;39.73;100525.46;1747711;82;21480;-75
2022/06/27 09:16:59;;;;;;;2.92;2.20;;;;;;;30.77;38.65;100517.14;1744576;82;21052;-78
2022/06/27 09:19:51;;;;;;;5.30;1.98;;;;;;;30.85;39.34;100520.52;1748203;80;21063;-82
2022/06/27 09:22:19;;;;;;;3.75;2.22;;;;;;;30.90;39.01;100524.16;1754135;80;21000;-87
2022/06/27 09:25:21;;;;;;;7.00;2.12;;;;;;;30.97;38.56;100528.86;1715309;81;21836;-88
2022/06/27 09:27:50;;;;;;;2.40;2.20;;;;;;;31.03;38.44;100527.04;1712470;81;20997;-83
2022/06/27 09:30:23;;;;;;;8.15;2.65;;;;;;;31.13;37.96;100521.71;1707759;81;21438;-77
2022/06/27 09:32:57;;;;;;;3.37;2.20;;;;;;;31.07;37.33;100524.08;1717647;81;21028;-78
2022/06/27 09:35:36;;;;;;;5.28;2.40;;;;;;;30.99;38.57;100525.91;1706889;83;21056;-78
2022/06/27 09:38:07;;;;;;;5.95;2.30;;;;;;;31.06;38.60;100516.97;1745658;82;22537;-80
2022/06/27 09:40:36;;;;;;;4.50;2.30;;;;;;;31.14;37.70;100509.72;1742859;80;21000;-77
2022/06/27 09:43:03;;;;;;;2.60;2.10;;;;;;;31.23;37.59;100507.40;1743420;82;21059;-78
2022/06/27 09:45:31;;;;;;;2.62;2.10;;;;;;;31.26;37.87;100514.52;1748409;82;21059;-83
2022/06/27 09:48:02;;;;;;;10.43;2.42;;;;;;;31.38;38.51;100514.95;1748767;82;21498;-77
2022/06/27 09:50:32;;;;;;;4.12;2.40;;;;;;;31.52;37.68;100505.27;1748756;80;22539;-77
2022/06/27 09:52:59;;;;;;;3.15;2.10;;;;;;;31.67;37.63;100499.97;1723537;81;21462;-79
2022/06/27 09:55:27;;;;;;;5.58;2.40;;;;;;;31.78;37.94;100503.11;1749181;81;21055;-78
2022/06/27 09:57:55;;;;;;;7.40;2.37;;;;;;;31.96;37.32;100502.45;1749692;80;21056;-80
2022/06/27 10:00:22;;;;;;;3.42;2.27;;;;;;;32.12;36.38;100493.28;1750373;80;20904;-78
2022/06/27 10:02:49;;;;;;;4.67;2.22;;;;;;;32.22;35.92;100501.55;1745762;80;21873;-79
2022/06/27 10:05:17;;;;;;;4.53;2.00;;;;;;;32.31;36.21;100493.73;1752884;80;21146;-77
2022/06/27 10:07:57;;;;;;;5.35;2.02;;;;;;;32.37;36.38;100507.72;1754830;80;21430;-79
2022/06/27 10:10:53;;;;;;;3.90;2.42;;;;;;;32.45;35.96;100498.48;1744264;82;21005;-82
2022/06/27 10:13:20;;;;;;;4.72;2.30;;;;;;;32.62;36.59;100505.68;1747277;81;21012;-81
2022/06/27 10:15:47;;;;;;;3.45;2.50;;;;;;;32.82;34.96;100497.61;1782982;80;21812;-82
2022/06/27 10:18:13;;;;;;;4.25;2.35;;;;;;;33.00;35.49;100505.91;1748404;81;21152;-81
2022/06/27 10:20:47;;;;;;;3.25;2.10;;;;;;;33.18;34.39;100497.23;1725711;82;20979;-81
2022/06/27 10:23:19;;;;;;;4.95;2.30;;;;;;;33.26;33.54;100498.08;1746921;82;21023;-81
2022/06/27 10:25:47;;;;;;;3.95;2.10;;;;;;;33.32;34.61;100501.67;1747696;82;21406;-81
2022/06/27 10:28:16;;;;;;;3.15;2.05;;;;;;;33.43;33.58;100500.63;1726500;82;22438;-81
2022/06/27 10:30:59;;;;;;;2.47;2.10;;;;;;;33.48;33.57;100499.80;1748512;80;20923;-81
2022/06/27 10:33:32;;;;;;;2.80;2.02;;;;;;;33.55;32.92;100497.09;1749697;82;20908;-81
2022/06/27 10:36:13;;;;;;;6.42;2.30;;;;;;;33.56;33.28;100500.65;1749629;81;21004;-81
2022/06/27 10:38:47;;;;;;;4.25;1.90;;;;;;;33.46;33.11;100500.08;1749662;82;21502;-81
2022/06/27 10:41:28;;;;;;;4.22;2.20;;;;;;;33.40;33.48;100501.18;1749547;82;22586;-81
2022/06/27 10:43:56;;;;;;;5.17;2.52;;;;;;;33.38;34.29;100492.94;1749721;82;20948;-81
2022/06/27 10:46:29;;;;;;;2.55;2.02;;;;;;;33.48;34.16;100496.52;1751136;81;20949;-82
2022/06/27 10:48:57;;;;;;;5.17;2.20;;;;;;;33.57;33.82;100503.11;1741777;80;20949;-81
2022/06/27 10:51:31;;;;;;;5.87;1.98;;;;;;;33.61;34.42;100493.83;1789489;80;20956;-81
2022/06/27 10:54:09;;;;;;;3.52;1.98;;;;;;;33.67;33.09;100490.53;1760929;80;21981;-82
2022/06/27 10:56:45;;;;;;;2.75;1.80;;;;;;;33.77;33.39;100493.27;1745722;82;21058;-82
2022/06/27 10:59:20;;;;;;;3.27;2.10;;;;;;;33.93;33.26;100500.45;1742841;82;21049;-82
2022/06/27 11:02:05;;;;;;;3.47;2.02;;;;;;;34.05;32.17;100500.17;1743549;80;20966;-83
2022/06/27 11:04:34;;;;;;;5.25;2.00;;;;;;;34.07;32.57;100494.72;1763098;80;20975;-82
2022/06/27 11:07:07;;;;;;;6.53;2.30;;;;;;;34.15;32.58;100498.25;1788001;80;22050;-77
2022/06/27 11:09:45;;;;;;;3.72;1.90;;;;;;;34.21;32.26;100486.73;1767294;80;21020;-85
2022/06/27 11:12:14;;;;;;;4.75;1.98;;;;;;;34.25;32.55;100486.45;1748268;82;21499;-83
2022/06/27 11:14:57;;;;;;;3.92;2.00;;;;;;;34.22;32.38;100487.56;1748190;82;21055;-80
2022/06/27 11:17:38;;;;;;;3.65;2.00;;;;;;;34.27;32.55;100489.77;1748407;82;21059;-83
2022/06/27 11:20:22;;;;;;;2.95;1.90;;;;;;;34.29;32.13;100493.04;1748300;82;21917;-79
2022/06/27 11:22:52;;;;;;;3.22;2.02;;;;;;;34.32;32.22;100486.17;1748565;80;21027;-77
2022/06/27 11:25:20;;;;;;;4.55;1.95;;;;;;;34.47;32.21;100488.11;1748493;82;21035;-77
2022/06/27 11:27:57;;;;;;;4.08;1.92;;;;;;;34.54;32.17;100488.08;1748464;82;21537;-79
2022/06/27 11:33:30;;;;;;;3.10;1.90;;;;;;;34.84;30.94;100489.08;1749319;80;22000;-78
2022/06/27 11:35:56;;;;;;;3.83;1.75;;;;;;;34.89;30.98;100481.69;1725536;82;21033;-79
2022/06/27 11:38:30;;;;;;;6.25;2.60;;;;;;;34.95;32.03;100480.58;1748664;82;21526;-77
2022/06/27 11:41:04;;;;;;;3.27;2.08;;;;;;;35.17;32.06;100484.31;1733231;80;21625;-79